Time,TemperatureF,DewpointF,PressureIn,WindDirection,WindDirectionDegrees,WindSpeedMPH,WindSpeedGustMPH,Humidity,HourlyPrecipIn,Conditions,Clouds,dailyrainin,SoftwareType,DateUTC
2013-02-12 00:12:00,48.0,42.1,29.82,ESE,112,7.8,-999.0,80,-99.99,,,0.00,Acu-Link.com,2013-02-12 06:12:00,
2013-02-12 00:27:00,48.0,42.8,29.82,ESE,112,9.9,-999.0,82,-99.99,,,0.00,Acu-Link.com,2013-02-12 06:27:00,
2013-02-12 00:42:00,47.7,43.4,29.83,SSE,157,8.9,-999.0,85,-99.99,,,0.00,Acu-Link.com,2013-02-12 06:42:00,
2013-02-12 00:58:00,46.9,43.8,29.84,SE,135,4.7,-999.0,89,-99.99,,,0.00,Acu-Link.com,2013-02-12 06:58:00,
2013-02-12 01:13:00,46.8,44.6,29.84,SE,135,3.2,-999.0,92,-99.99,,,0.00,Acu-Link.com,2013-02-12 07:13:00,
2013-02-12 01:28:00,46.6,45.0,29.84,ESE,112,3.2,-999.0,94,-99.99,,,0.00,Acu-Link.com,2013-02-12 07:28:00,
2013-02-12 01:44:00,46.8,44.9,29.82,SE,135,5.8,-999.0,93,-99.99,,,0.00,Acu-Link.com,2013-02-12 07:44:00,
2013-02-12 02:05:00,46.9,45.0,29.81,East,90,4.2,-999.0,93,-99.99,,,0.00,Acu-Link.com,2013-02-12 08:05:00,
2013-02-12 02:22:00,46.9,45.0,29.81,East,90,3.7,-999.0,93,-99.99,,,0.00,Acu-Link.com,2013-02-12 08:22:00,
2013-02-12 02:37:00,46.9,45.0,29.81,SE,135,5.3,-999.0,93,-99.99,,,0.00,Acu-Link.com,2013-02-12 08:37:00,
2013-02-12 02:53:00,47.1,44.9,29.81,NNE,22,2.2,-999.0,92,-99.99,,,0.00,Acu-Link.com,2013-02-12 08:53:00,
2013-02-12 03:19:00,47.1,44.9,29.80,East,90,3.2,-999.0,92,-99.99,,,0.00,Acu-Link.com,2013-02-12 09:19:00,
2013-02-12 03:34:00,47.3,45.1,29.80,East,90,2.2,-999.0,92,-99.99,,,0.00,Acu-Link.com,2013-02-12 09:34:00,
2013-02-12 03:49:00,47.3,45.1,29.77,ENE,67,5.3,-999.0,92,-99.99,,,0.00,Acu-Link.com,2013-02-12 09:49:00,
2013-02-12 04:04:00,47.5,45.3,29.75,East,90,6.3,-999.0,92,-99.99,,,0.00,Acu-Link.com,2013-02-12 10:04:00,
2013-02-12 04:19:00,47.5,45.3,29.76,ESE,112,4.2,-999.0,92,-99.99,,,0.00,Acu-Link.com,2013-02-12 10:19:00,
2013-02-12 04:35:00,47.3,45.7,29.76,ESE,112,6.8,-999.0,94,-99.99,,,0.00,Acu-Link.com,2013-02-12 10:35:00,
2013-02-12 04:50:00,46.9,45.5,29.73,East,90,6.3,-999.0,95,-99.99,,,0.00,Acu-Link.com,2013-02-12 10:50:00,
2013-02-12 05:05:00,46.9,46.1,29.73,East,90,4.7,-999.0,97,-99.99,,,0.00,Acu-Link.com,2013-02-12 11:05:00,
2013-02-12 05:20:00,46.9,46.4,29.73,SE,135,4.2,-999.0,98,-99.99,,,0.00,Acu-Link.com,2013-02-12 11:20:00,
2013-02-12 05:35:00,47.3,46.8,29.73,SE,135,2.7,-999.0,98,-99.99,,,0.00,Acu-Link.com,2013-02-12 11:35:00,
2013-02-12 05:50:00,47.5,47.0,29.73,SE,135,3.2,-999.0,98,-99.99,,,0.00,Acu-Link.com,2013-02-12 11:50:00,
2013-02-12 06:06:00,47.5,47.2,29.73,SE,135,3.2,-999.0,99,-99.99,,,0.00,Acu-Link.com,2013-02-12 12:06:00,
2013-02-12 06:21:00,47.3,47.0,29.73,SE,135,2.7,-999.0,99,-99.99,,,0.00,Acu-Link.com,2013-02-12 12:21:00,
2013-02-12 06:36:00,47.1,46.8,29.73,SE,135,0.0,-999.0,99,-99.99,,,0.00,Acu-Link.com,2013-02-12 12:36:00,
2013-02-12 06:52:00,47.1,46.8,29.74,SE,135,0.0,-999.0,99,-99.99,,,0.00,Acu-Link.com,2013-02-12 12:52:00,
2013-02-12 07:07:00,47.1,46.8,29.75,SE,135,2.7,-999.0,99,-99.99,,,0.00,Acu-Link.com,2013-02-12 13:07:00,
2013-02-12 07:22:00,47.1,46.8,29.74,SW,225,1.1,-999.0,99,-99.99,,,0.00,Acu-Link.com,2013-02-12 13:22:00,
2013-02-12 07:37:00,47.1,46.8,29.75,SW,225,3.2,-999.0,99,-99.99,,,0.00,Acu-Link.com,2013-02-12 13:37:00,
2013-02-12 07:53:00,47.3,47.0,29.78,West,270,2.7,-999.0,99,-99.99,,,0.00,Acu-Link.com,2013-02-12 13:53:00,
2013-02-12 08:08:00,47.5,47.2,29.78,West,270,3.7,-999.0,99,-99.99,,,0.00,Acu-Link.com,2013-02-12 14:08:00,
2013-02-12 08:23:00,47.5,47.2,29.78,West,270,2.2,-999.0,99,-99.99,,,0.00,Acu-Link.com,2013-02-12 14:23:00,
2013-02-12 08:38:00,47.7,47.4,29.78,West,270,2.2,-999.0,99,-99.99,,,0.00,Acu-Link.com,2013-02-12 14:38:00,
2013-02-12 08:54:00,48.0,47.7,29.77,West,270,0.0,-999.0,99,-99.99,,,0.00,Acu-Link.com,2013-02-12 14:54:00,
2013-02-12 09:09:00,48.4,48.1,29.79,West,270,1.7,-999.0,99,-99.99,,,0.00,Acu-Link.com,2013-02-12 15:09:00,
2013-02-12 09:24:00,48.9,48.6,29.78,West,270,2.7,-999.0,99,-99.99,,,0.00,Acu-Link.com,2013-02-12 15:24:00,
2013-02-12 09:40:00,49.3,48.8,29.78,SW,225,3.2,-999.0,98,-99.99,,,0.00,Acu-Link.com,2013-02-12 15:40:00,
2013-02-12 09:55:00,50.2,49.4,29.78,SSW,202,4.2,-999.0,97,-99.99,,,0.00,Acu-Link.com,2013-02-12 15:55:00,
2013-02-12 10:10:00,51.4,49.4,29.78,SW,225,5.3,-999.0,93,-99.99,,,0.00,Acu-Link.com,2013-02-12 16:10:00,
2013-02-12 10:26:00,52.2,50.2,29.79,West,270,4.7,-999.0,93,-99.99,,,0.00,Acu-Link.com,2013-02-12 16:26:00,
2013-02-12 10:41:00,53.1,50.2,29.79,SW,225,5.8,-999.0,90,-99.99,,,0.00,Acu-Link.com,2013-02-12 16:41:00,
2013-02-12 10:56:00,53.1,50.2,29.79,WSW,247,4.7,-999.0,90,-99.99,,,0.00,Acu-Link.com,2013-02-12 16:56:00,
2013-02-12 11:11:00,53.2,50.3,29.80,WSW,247,4.7,-999.0,90,-99.99,,,0.00,Acu-Link.com,2013-02-12 17:11:00,
2013-02-12 11:27:00,53.2,50.0,29.80,West,270,4.2,-999.0,89,-99.99,,,0.00,Acu-Link.com,2013-02-12 17:27:00,
2013-02-12 11:42:00,55.0,50.9,29.79,West,270,7.3,-999.0,86,-99.99,,,0.00,Acu-Link.com,2013-02-12 17:42:00,
2013-02-12 11:57:00,56.5,50.7,29.78,WNW,292,8.3,-999.0,81,-99.99,,,0.00,Acu-Link.com,2013-02-12 17:57:00,
2013-02-12 12:12:00,58.8,49.8,29.76,NW,315,7.8,-999.0,72,-99.99,,,0.00,Acu-Link.com,2013-02-12 18:12:00,
2013-02-12 12:27:00,58.8,49.0,29.75,NNW,337,7.3,-999.0,70,-99.99,,,0.00,Acu-Link.com,2013-02-12 18:27:00,
2013-02-12 12:43:00,60.3,48.9,29.75,West,270,8.9,-999.0,66,-99.99,,,0.00,Acu-Link.com,2013-02-12 18:43:00,
2013-02-12 12:58:00,59.7,48.3,29.73,NNW,337,4.7,-999.0,66,-99.99,,,0.00,Acu-Link.com,2013-02-12 18:58:00,
2013-02-12 13:13:00,61.9,48.3,29.73,West,270,5.3,-999.0,61,-99.99,,,0.00,Acu-Link.com,2013-02-12 19:13:00,
2013-02-12 13:28:00,61.7,46.8,29.73,WSW,247,9.9,-999.0,58,-99.99,,,0.00,Acu-Link.com,2013-02-12 19:28:00,
2013-02-12 13:44:00,62.1,47.1,29.71,NW,315,8.3,-999.0,58,-99.99,,,0.00,Acu-Link.com,2013-02-12 19:44:00,
2013-02-12 13:59:00,65.3,47.7,29.71,NW,315,6.8,-999.0,53,-99.99,,,0.00,Acu-Link.com,2013-02-12 19:59:00,
2013-02-12 14:14:00,62.8,45.9,29.70,West,270,10.9,-999.0,54,-99.99,,,0.00,Acu-Link.com,2013-02-12 20:14:00,
2013-02-12 14:30:00,60.1,47.0,29.71,WSW,247,6.8,-999.0,62,-99.99,,,0.00,Acu-Link.com,2013-02-12 20:30:00,
2013-02-12 14:45:00,63.1,47.1,29.70,North,0,7.8,-999.0,56,-99.99,,,0.00,Acu-Link.com,2013-02-12 20:45:00,
2013-02-12 15:00:00,62.6,47.2,29.70,NW,315,7.3,-999.0,57,-99.99,,,0.00,Acu-Link.com,2013-02-12 21:00:00,
2013-02-12 15:16:00,63.5,47.0,29.69,NNW,337,4.2,-999.0,55,-99.99,,,0.00,Acu-Link.com,2013-02-12 21:16:00,
2013-02-12 15:31:00,60.3,45.9,29.70,NNW,337,12.5,-999.0,59,-99.99,,,0.00,Acu-Link.com,2013-02-12 21:31:00,
2013-02-12 15:46:00,60.8,45.5,29.71,North,0,6.8,-999.0,57,-99.99,,,0.00,Acu-Link.com,2013-02-12 21:46:00,
2013-02-12 16:02:00,60.1,45.3,29.71,NW,315,10.4,-999.0,58,-99.99,,,0.00,Acu-Link.com,2013-02-12 22:02:00,
2013-02-12 16:17:00,59.4,44.2,29.72,ENE,67,11.4,-999.0,57,-99.99,,,0.00,Acu-Link.com,2013-02-12 22:17:00,
2013-02-12 16:32:00,59.2,43.5,29.72,NNW,337,9.4,-999.0,56,-99.99,,,0.00,Acu-Link.com,2013-02-12 22:32:00,
2013-02-12 16:48:00,59.2,41.6,29.73,NW,315,6.3,-999.0,52,-99.99,,,0.00,Acu-Link.com,2013-02-12 22:48:00,
2013-02-12 17:03:00,58.6,42.0,29.73,NNW,337,12.5,-999.0,54,-99.99,,,0.00,Acu-Link.com,2013-02-12 23:03:00,
2013-02-12 17:18:00,58.5,42.4,29.75,NW,315,8.9,-999.0,55,-99.99,,,0.00,Acu-Link.com,2013-02-12 23:18:00,
2013-02-12 17:33:00,56.7,41.6,29.76,NNW,337,8.9,-999.0,57,-99.99,,,0.00,Acu-Link.com,2013-02-12 23:33:00,
2013-02-12 17:49:00,55.8,42.1,29.77,West,270,11.9,-999.0,60,-99.99,,,0.00,Acu-Link.com,2013-02-12 23:49:00,
2013-02-12 18:04:00,54.3,41.6,29.78,NW,315,10.9,-999.0,62,-99.99,,,0.00,Acu-Link.com,2013-02-13 00:04:00,
2013-02-12 18:19:00,52.5,41.5,29.80,NNW,337,8.3,-999.0,66,-99.99,,,0.00,Acu-Link.com,2013-02-13 00:19:00,
2013-02-12 18:34:00,51.1,41.3,29.81,NNW,337,8.9,-999.0,69,-99.99,,,0.00,Acu-Link.com,2013-02-13 00:34:00,
2013-02-12 18:49:00,49.3,40.3,29.83,NNW,337,11.4,-999.0,71,-99.99,,,0.00,Acu-Link.com,2013-02-13 00:49:00,
2013-02-12 19:05:00,48.0,40.5,29.84,NNE,22,13.5,-999.0,75,-99.99,,,0.00,Acu-Link.com,2013-02-13 01:05:00,
2013-02-12 19:20:00,47.5,40.7,29.86,West,270,14.0,-999.0,77,-99.99,,,0.00,Acu-Link.com,2013-02-13 01:20:00,
2013-02-12 19:35:00,46.0,39.9,29.87,NW,315,13.0,-999.0,79,-99.99,,,0.00,Acu-Link.com,2013-02-13 01:35:00,
2013-02-12 19:51:00,44.6,38.5,29.88,NNW,337,16.6,-999.0,79,-99.99,,,0.00,Acu-Link.com,2013-02-13 01:51:00,
2013-02-12 20:06:00,44.1,38.3,29.88,NW,315,8.9,-999.0,80,-99.99,,,0.00,Acu-Link.com,2013-02-13 02:06:00,
2013-02-12 20:21:00,43.5,37.7,29.88,NW,315,14.5,-999.0,80,-99.99,,,0.00,Acu-Link.com,2013-02-13 02:21:00,
2013-02-12 20:37:00,42.8,36.4,29.90,NNW,337,6.8,-999.0,78,-99.99,,,0.00,Acu-Link.com,2013-02-13 02:37:00,
2013-02-12 20:52:00,42.1,36.1,29.90,WNW,292,7.3,-999.0,79,-99.99,,,0.00,Acu-Link.com,2013-02-13 02:52:00,
2013-02-12 21:07:00,42.3,35.3,29.91,NNW,337,4.7,-999.0,76,-99.99,,,0.00,Acu-Link.com,2013-02-13 03:07:00,
2013-02-12 21:23:00,42.3,35.3,29.92,NW,315,6.8,-999.0,76,-99.99,,,0.00,Acu-Link.com,2013-02-13 03:23:00,
2013-02-12 21:38:00,41.7,34.0,29.94,NW,315,7.3,-999.0,74,-99.99,,,0.00,Acu-Link.com,2013-02-13 03:38:00,
2013-02-12 21:54:00,41.0,33.4,29.94,WNW,292,10.9,-999.0,74,-99.99,,,0.00,Acu-Link.com,2013-02-13 03:54:00,
2013-02-12 22:09:00,40.6,33.0,29.94,West,270,11.9,-999.0,74,-99.99,,,0.00,Acu-Link.com,2013-02-13 04:09:00,
2013-02-12 22:24:00,40.5,33.2,29.96,NNW,337,6.8,-999.0,75,-99.99,,,0.00,Acu-Link.com,2013-02-13 04:24:00,
2013-02-12 22:39:00,40.5,33.2,29.96,NW,315,7.8,-999.0,75,-99.99,,,0.00,Acu-Link.com,2013-02-13 04:39:00,
2013-02-12 22:56:00,40.3,33.3,29.96,NNW,337,10.4,-999.0,76,-99.99,,,0.00,Acu-Link.com,2013-02-13 04:56:00,
2013-02-12 23:11:00,39.6,33.6,29.96,NW,315,10.4,-999.0,79,-99.99,,,0.00,Acu-Link.com,2013-02-13 05:11:00,
2013-02-12 23:26:00,39.6,33.6,29.96,NW,315,8.3,-999.0,79,-99.99,,,0.00,Acu-Link.com,2013-02-13 05:26:00,
2013-02-12 23:41:00,39.2,33.6,29.96,North,0,9.9,-999.0,80,-99.99,,,0.00,Acu-Link.com,2013-02-13 05:41:00,
2013-02-12 23:57:00,39.0,33.4,29.96,West,270,6.8,-999.0,80,-99.99,,,0.00,Acu-Link.com,2013-02-13 05:57:00,